sensor_id;sensor_type;location;lat;lon;timestamp;P1;durP1;ratioP1;P2;durP2;ratioP2
36575;SDS011;45700;50.930;5.168;2022-08-24T00:01:17;3.65;;;2.00;;
36575;SDS011;45700;50.930;5.168;2022-08-24T00:05:18;3.00;;;2.20;;
36575;SDS011;45700;50.930;5.168;2022-08-24T00:09:22;3.60;;;2.40;;
36575;SDS011;45700;50.930;5.168;2022-08-24T00:13:23;3.30;;;1.92;;
36575;SDS011;45700;50.930;5.168;2022-08-24T00:17:24;2.67;;;2.15;;
36575;SDS011;45700;50.930;5.168;2022-08-24T00:21:25;2.30;;;1.77;;
36575;SDS011;45700;50.930;5.168;2022-08-24T00:25:26;2.65;;;1.88;;
36575;SDS011;45700;50.930;5.168;2022-08-24T00:29:27;3.92;;;2.05;;
36575;SDS011;45700;50.930;5.168;2022-08-24T00:33:28;4.70;;;2.30;;
36575;SDS011;45700;50.930;5.168;2022-08-24T00:37:29;3.38;;;2.35;;
36575;SDS011;45700;50.930;5.168;2022-08-24T00:41:30;2.70;;;1.80;;
36575;SDS011;45700;50.930;5.168;2022-08-24T00:45:42;2.28;;;2.00;;
36575;SDS011;45700;50.930;5.168;2022-08-24T00:49:46;2.58;;;2.00;;
36575;SDS011;45700;50.930;5.168;2022-08-24T00:53:58;3.08;;;2.08;;
36575;SDS011;45700;50.930;5.168;2022-08-24T00:58:03;3.15;;;2.13;;
36575;SDS011;45700;50.930;5.168;2022-08-24T01:02:06;2.40;;;2.00;;
36575;SDS011;45700;50.930;5.168;2022-08-24T01:06:11;5.55;;;2.70;;
36575;SDS011;45700;50.930;5.168;2022-08-24T01:10:13;3.13;;;2.55;;
36575;SDS011;45700;50.930;5.168;2022-08-24T01:14:16;4.82;;;2.97;;
36575;SDS011;45700;50.930;5.168;2022-08-24T01:18:19;4.38;;;2.70;;
36575;SDS011;45700;50.930;5.168;2022-08-24T01:23:04;3.80;;;2.80;;
36575;SDS011;45700;50.930;5.168;2022-08-24T01:27:07;4.93;;;3.10;;
36575;SDS011;45700;50.930;5.168;2022-08-24T01:31:08;4.03;;;2.53;;
36575;SDS011;45700;50.930;5.168;2022-08-24T01:35:09;3.97;;;3.10;;
36575;SDS011;45700;50.930;5.168;2022-08-24T01:39:21;3.58;;;2.70;;
36575;SDS011;45700;50.930;5.168;2022-08-24T01:43:22;4.68;;;3.22;;
36575;SDS011;45700;50.930;5.168;2022-08-24T01:47:23;6.28;;;2.85;;
36575;SDS011;45700;50.930;5.168;2022-08-24T01:51:28;3.85;;;2.70;;
36575;SDS011;45700;50.930;5.168;2022-08-24T01:55:30;3.70;;;2.60;;
36575;SDS011;45700;50.930;5.168;2022-08-24T01:59:31;5.03;;;3.10;;
36575;SDS011;45700;50.930;5.168;2022-08-24T02:03:32;5.22;;;2.60;;
36575;SDS011;45700;50.930;5.168;2022-08-24T02:07:33;4.97;;;3.00;;
36575;SDS011;45700;50.930;5.168;2022-08-24T02:11:34;5.13;;;3.20;;
36575;SDS011;45700;50.930;5.168;2022-08-24T02:15:37;5.05;;;2.90;;
36575;SDS011;45700;50.930;5.168;2022-08-24T02:19:39;5.05;;;2.88;;
36575;SDS011;45700;50.930;5.168;2022-08-24T02:23:40;5.38;;;3.20;;
36575;SDS011;45700;50.930;5.168;2022-08-24T02:27:42;6.15;;;4.13;;
36575;SDS011;45700;50.930;5.168;2022-08-24T02:31:43;6.18;;;3.90;;
36575;SDS011;45700;50.930;5.168;2022-08-24T02:35:44;5.40;;;3.15;;
36575;SDS011;45700;50.930;5.168;2022-08-24T02:39:45;6.03;;;4.30;;
36575;SDS011;45700;50.930;5.168;2022-08-24T02:43:46;5.53;;;3.50;;
36575;SDS011;45700;50.930;5.168;2022-08-24T02:47:48;4.20;;;3.30;;
36575;SDS011;45700;50.930;5.168;2022-08-24T02:51:55;4.32;;;3.13;;
36575;SDS011;45700;50.930;5.168;2022-08-24T02:55:56;5.70;;;3.42;;
36575;SDS011;45700;50.930;5.168;2022-08-24T02:59:57;6.28;;;3.90;;
36575;SDS011;45700;50.930;5.168;2022-08-24T03:03:58;5.07;;;3.55;;
36575;SDS011;45700;50.930;5.168;2022-08-24T03:08:00;4.78;;;3.20;;
36575;SDS011;45700;50.930;5.168;2022-08-24T03:12:01;5.25;;;3.45;;
36575;SDS011;45700;50.930;5.168;2022-08-24T03:16:02;5.47;;;3.80;;
36575;SDS011;45700;50.930;5.168;2022-08-24T03:20:04;6.72;;;3.95;;
36575;SDS011;45700;50.930;5.168;2022-08-24T03:24:06;6.30;;;4.25;;
36575;SDS011;45700;50.930;5.168;2022-08-24T03:28:07;7.55;;;4.53;;
36575;SDS011;45700;50.930;5.168;2022-08-24T03:32:08;5.60;;;4.18;;
36575;SDS011;45700;50.930;5.168;2022-08-24T03:36:09;5.00;;;3.60;;
36575;SDS011;45700;50.930;5.168;2022-08-24T03:40:10;7.63;;;4.95;;
36575;SDS011;45700;50.930;5.168;2022-08-24T03:44:11;6.30;;;4.32;;
36575;SDS011;45700;50.930;5.168;2022-08-24T03:48:12;6.72;;;4.45;;
36575;SDS011;45700;50.930;5.168;2022-08-24T03:52:13;6.85;;;4.32;;
36575;SDS011;45700;50.930;5.168;2022-08-24T03:56:14;9.52;;;4.68;;
36575;SDS011;45700;50.930;5.168;2022-08-24T04:00:17;5.05;;;3.72;;
36575;SDS011;45700;50.930;5.168;2022-08-24T04:04:18;7.28;;;4.53;;
36575;SDS011;45700;50.930;5.168;2022-08-24T04:08:19;7.22;;;4.38;;
36575;SDS011;45700;50.930;5.168;2022-08-24T04:12:20;6.00;;;3.67;;
36575;SDS011;45700;50.930;5.168;2022-08-24T04:16:22;5.95;;;3.75;;
36575;SDS011;45700;50.930;5.168;2022-08-24T04:20:23;6.55;;;3.80;;
36575;SDS011;45700;50.930;5.168;2022-08-24T04:24:25;4.68;;;3.20;;
36575;SDS011;45700;50.930;5.168;2022-08-24T04:28:26;5.63;;;3.88;;
36575;SDS011;45700;50.930;5.168;2022-08-24T04:32:27;4.82;;;3.40;;
36575;SDS011;45700;50.930;5.168;2022-08-24T04:36:28;4.25;;;3.10;;
36575;SDS011;45700;50.930;5.168;2022-08-24T04:40:30;6.05;;;3.72;;
36575;SDS011;45700;50.930;5.168;2022-08-24T04:44:31;5.65;;;3.65;;
36575;SDS011;45700;50.930;5.168;2022-08-24T04:48:33;4.03;;;2.88;;
36575;SDS011;45700;50.930;5.168;2022-08-24T04:52:34;6.10;;;2.90;;
36575;SDS011;45700;50.930;5.168;2022-08-24T04:56:36;3.95;;;2.90;;
36575;SDS011;45700;50.930;5.168;2022-08-24T05:00:36;3.72;;;2.80;;
36575;SDS011;45700;50.930;5.168;2022-08-24T05:04:37;4.05;;;3.08;;
36575;SDS011;45700;50.930;5.168;2022-08-24T05:08:39;6.40;;;3.05;;
36575;SDS011;45700;50.930;5.168;2022-08-24T05:12:40;4.45;;;2.90;;
36575;SDS011;45700;50.930;5.168;2022-08-24T05:16:41;4.43;;;3.30;;
36575;SDS011;45700;50.930;5.168;2022-08-24T05:20:43;4.00;;;3.47;;
36575;SDS011;45700;50.930;5.168;2022-08-24T05:24:44;5.45;;;3.50;;
36575;SDS011;45700;50.930;5.168;2022-08-24T05:28:45;5.10;;;4.03;;
36575;SDS011;45700;50.930;5.168;2022-08-24T05:32:46;7.25;;;4.80;;
36575;SDS011;45700;50.930;5.168;2022-08-24T05:36:48;8.68;;;4.55;;
36575;SDS011;45700;50.930;5.168;2022-08-24T05:40:49;8.45;;;4.80;;
36575;SDS011;45700;50.930;5.168;2022-08-24T05:44:50;7.97;;;5.07;;
36575;SDS011;45700;50.930;5.168;2022-08-24T05:48:51;7.32;;;4.05;;
36575;SDS011;45700;50.930;5.168;2022-08-24T05:52:52;8.18;;;4.55;;
36575;SDS011;45700;50.930;5.168;2022-08-24T05:56:56;8.40;;;4.82;;
36575;SDS011;45700;50.930;5.168;2022-08-24T06:01:04;5.82;;;4.18;;
36575;SDS011;45700;50.930;5.168;2022-08-24T06:05:06;6.75;;;4.45;;
36575;SDS011;45700;50.930;5.168;2022-08-24T06:09:09;9.18;;;5.38;;
36575;SDS011;45700;50.930;5.168;2022-08-24T06:13:10;11.10;;;7.15;;
36575;SDS011;45700;50.930;5.168;2022-08-24T06:17:11;9.65;;;6.85;;
36575;SDS011;45700;50.930;5.168;2022-08-24T06:21:13;11.35;;;7.82;;
36575;SDS011;45700;50.930;5.168;2022-08-24T06:25:15;13.68;;;8.95;;
36575;SDS011;45700;50.930;5.168;2022-08-24T06:29:34;15.90;;;9.85;;
36575;SDS011;45700;50.930;5.168;2022-08-24T06:33:35;16.80;;;10.32;;
36575;SDS011;45700;50.930;5.168;2022-08-24T06:37:36;18.52;;;11.27;;
36575;SDS011;45700;50.930;5.168;2022-08-24T06:41:37;17.27;;;11.00;;
36575;SDS011;45700;50.930;5.168;2022-08-24T06:45:39;21.13;;;12.98;;
36575;SDS011;45700;50.930;5.168;2022-08-24T06:49:40;23.92;;;15.00;;
36575;SDS011;45700;50.930;5.168;2022-08-24T06:53:41;24.40;;;15.73;;
36575;SDS011;45700;50.930;5.168;2022-08-24T06:57:42;25.40;;;15.82;;
36575;SDS011;45700;50.930;5.168;2022-08-24T07:01:43;21.13;;;14.23;;
36575;SDS011;45700;50.930;5.168;2022-08-24T07:05:54;25.08;;;17.10;;
36575;SDS011;45700;50.930;5.168;2022-08-24T07:09:58;22.50;;;15.15;;
36575;SDS011;45700;50.930;5.168;2022-08-24T07:13:59;18.75;;;13.07;;
36575;SDS011;45700;50.930;5.168;2022-08-24T07:18:00;20.23;;;13.50;;
36575;SDS011;45700;50.930;5.168;2022-08-24T07:22:01;20.48;;;12.98;;
36575;SDS011;45700;50.930;5.168;2022-08-24T07:26:06;20.08;;;13.32;;
36575;SDS011;45700;50.930;5.168;2022-08-24T07:30:08;22.27;;;14.13;;
36575;SDS011;45700;50.930;5.168;2022-08-24T07:34:09;21.02;;;13.50;;
36575;SDS011;45700;50.930;5.168;2022-08-24T07:38:10;20.40;;;14.15;;
36575;SDS011;45700;50.930;5.168;2022-08-24T07:42:12;21.85;;;14.82;;
36575;SDS011;45700;50.930;5.168;2022-08-24T07:46:13;21.90;;;14.50;;
36575;SDS011;45700;50.930;5.168;2022-08-24T07:50:14;22.65;;;15.65;;
36575;SDS011;45700;50.930;5.168;2022-08-24T07:54:16;20.95;;;14.45;;
36575;SDS011;45700;50.930;5.168;2022-08-24T07:58:17;20.20;;;13.95;;
36575;SDS011;45700;50.930;5.168;2022-08-24T08:02:18;21.17;;;13.43;;
36575;SDS011;45700;50.930;5.168;2022-08-24T08:06:19;21.02;;;14.45;;
36575;SDS011;45700;50.930;5.168;2022-08-24T08:10:21;20.30;;;13.93;;
36575;SDS011;45700;50.930;5.168;2022-08-24T08:14:22;19.42;;;13.63;;
36575;SDS011;45700;50.930;5.168;2022-08-24T08:18:24;22.40;;;14.02;;
36575;SDS011;45700;50.930;5.168;2022-08-24T08:22:25;20.52;;;14.52;;
36575;SDS011;45700;50.930;5.168;2022-08-24T08:26:44;19.98;;;15.13;;
36575;SDS011;45700;50.930;5.168;2022-08-24T08:30:46;22.15;;;14.45;;
36575;SDS011;45700;50.930;5.168;2022-08-24T08:34:47;19.58;;;13.45;;
36575;SDS011;45700;50.930;5.168;2022-08-24T08:38:48;20.40;;;14.05;;
36575;SDS011;45700;50.930;5.168;2022-08-24T08:43:00;19.45;;;12.65;;
36575;SDS011;45700;50.930;5.168;2022-08-24T08:47:10;16.70;;;10.88;;
36575;SDS011;45700;50.930;5.168;2022-08-24T09:16:26;12.75;;;8.52;;
36575;SDS011;45700;50.930;5.168;2022-08-24T09:29:02;11.38;;;6.63;;
36575;SDS011;45700;50.930;5.168;2022-08-24T09:57:56;5.28;;;4.10;;
36575;SDS011;45700;50.930;5.168;2022-08-24T10:14:46;4.80;;;3.72;;
36575;SDS011;45700;50.930;5.168;2022-08-24T10:31:47;3.15;;;2.53;;
36575;SDS011;45700;50.930;5.168;2022-08-24T10:35:54;4.07;;;2.50;;
36575;SDS011;45700;50.930;5.168;2022-08-24T11:00:09;2.15;;;1.52;;
36575;SDS011;45700;50.930;5.168;2022-08-24T11:04:24;3.40;;;1.60;;
36575;SDS011;45700;50.930;5.168;2022-08-24T11:08:27;2.70;;;2.10;;
36575;SDS011;45700;50.930;5.168;2022-08-24T11:12:32;1.75;;;1.65;;
36575;SDS011;45700;50.930;5.168;2022-08-24T11:16:39;2.60;;;1.60;;
36575;SDS011;45700;50.930;5.168;2022-08-24T11:20:42;2.45;;;1.75;;
36575;SDS011;45700;50.930;5.168;2022-08-24T11:24:45;2.70;;;1.52;;
36575;SDS011;45700;50.930;5.168;2022-08-24T11:28:51;2.50;;;1.40;;
36575;SDS011;45700;50.930;5.168;2022-08-24T11:36:55;2.22;;;1.20;;
36575;SDS011;45700;50.930;5.168;2022-08-24T11:45:23;2.25;;;1.50;;
36575;SDS011;45700;50.930;5.168;2022-08-24T11:54:10;2.38;;;1.02;;
36575;SDS011;45700;50.930;5.168;2022-08-24T12:02:21;1.17;;;1.05;;
36575;SDS011;45700;50.930;5.168;2022-08-24T12:14:42;3.78;;;1.10;;
36575;SDS011;45700;50.930;5.168;2022-08-24T12:23:00;1.15;;;1.05;;
36575;SDS011;45700;50.930;5.168;2022-08-24T12:27:23;1.83;;;1.13;;
36575;SDS011;45700;50.930;5.168;2022-08-24T12:31:45;1.17;;;1.00;;
36575;SDS011;45700;50.930;5.168;2022-08-24T12:35:45;2.65;;;1.30;;
36575;SDS011;45700;50.930;5.168;2022-08-24T12:44:03;1.23;;;1.00;;
36575;SDS011;45700;50.930;5.168;2022-08-24T13:00:43;2.22;;;0.85;;
36575;SDS011;45700;50.930;5.168;2022-08-24T13:08:49;1.95;;;0.90;;
36575;SDS011;45700;50.930;5.168;2022-08-24T13:21:04;1.42;;;1.15;;
36575;SDS011;45700;50.930;5.168;2022-08-24T13:25:22;1.27;;;1.00;;
36575;SDS011;45700;50.930;5.168;2022-08-24T13:29:27;1.75;;;0.98;;
36575;SDS011;45700;50.930;5.168;2022-08-24T13:37:30;2.70;;;1.55;;
36575;SDS011;45700;50.930;5.168;2022-08-24T13:45:55;2.28;;;1.00;;
36575;SDS011;45700;50.930;5.168;2022-08-24T13:49:59;1.45;;;1.00;;
36575;SDS011;45700;50.930;5.168;2022-08-24T14:19:24;1.38;;;1.27;;
36575;SDS011;45700;50.930;5.168;2022-08-24T14:31:36;1.98;;;1.00;;
36575;SDS011;45700;50.930;5.168;2022-08-24T14:39:54;1.17;;;0.80;;
36575;SDS011;45700;50.930;5.168;2022-08-24T14:52:20;2.85;;;1.13;;
36575;SDS011;45700;50.930;5.168;2022-08-24T15:04:57;2.15;;;1.08;;
36575;SDS011;45700;50.930;5.168;2022-08-24T15:13:28;1.58;;;0.88;;
36575;SDS011;45700;50.930;5.168;2022-08-24T15:17:43;3.70;;;1.20;;
36575;SDS011;45700;50.930;5.168;2022-08-24T15:26:17;1.95;;;1.20;;
36575;SDS011;45700;50.930;5.168;2022-08-24T15:30:24;11.38;;;1.33;;
36575;SDS011;45700;50.930;5.168;2022-08-24T15:38:54;2.55;;;1.10;;
36575;SDS011;45700;50.930;5.168;2022-08-24T15:42:59;1.60;;;0.93;;
36575;SDS011;45700;50.930;5.168;2022-08-24T15:47:03;2.72;;;0.95;;
36575;SDS011;45700;50.930;5.168;2022-08-24T15:51:05;1.90;;;1.10;;
36575;SDS011;45700;50.930;5.168;2022-08-24T15:55:07;1.02;;;0.95;;
36575;SDS011;45700;50.930;5.168;2022-08-24T15:59:22;1.87;;;1.20;;
36575;SDS011;45700;50.930;5.168;2022-08-24T16:07:32;3.80;;;1.17;;
36575;SDS011;45700;50.930;5.168;2022-08-24T16:12:02;1.42;;;1.00;;
36575;SDS011;45700;50.930;5.168;2022-08-24T16:16:05;1.70;;;1.08;;
36575;SDS011;45700;50.930;5.168;2022-08-24T16:20:13;1.27;;;1.10;;
36575;SDS011;45700;50.930;5.168;2022-08-24T16:24:38;2.13;;;1.25;;
36575;SDS011;45700;50.930;5.168;2022-08-24T16:28:37;1.33;;;1.20;;
36575;SDS011;45700;50.930;5.168;2022-08-24T16:32:50;1.15;;;1.02;;
36575;SDS011;45700;50.930;5.168;2022-08-24T16:36:53;3.00;;;1.20;;
36575;SDS011;45700;50.930;5.168;2022-08-24T16:40:57;1.77;;;1.10;;
36575;SDS011;45700;50.930;5.168;2022-08-24T16:44:58;1.65;;;1.20;;
36575;SDS011;45700;50.930;5.168;2022-08-24T16:49:00;1.13;;;1.00;;
36575;SDS011;45700;50.930;5.168;2022-08-24T16:53:01;1.92;;;1.13;;
36575;SDS011;45700;50.930;5.168;2022-08-24T16:57:23;3.40;;;1.55;;
36575;SDS011;45700;50.930;5.168;2022-08-24T17:01:23;2.03;;;1.10;;
36575;SDS011;45700;50.930;5.168;2022-08-24T17:05:24;1.60;;;0.90;;
36575;SDS011;45700;50.930;5.168;2022-08-24T17:09:26;2.00;;;1.00;;
36575;SDS011;45700;50.930;5.168;2022-08-24T17:13:28;3.67;;;1.67;;
36575;SDS011;45700;50.930;5.168;2022-08-24T17:17:29;3.70;;;1.65;;
36575;SDS011;45700;50.930;5.168;2022-08-24T17:21:30;1.63;;;1.17;;
36575;SDS011;45700;50.930;5.168;2022-08-24T17:25:31;3.25;;;1.77;;
36575;SDS011;45700;50.930;5.168;2022-08-24T17:29:34;3.45;;;1.30;;
36575;SDS011;45700;50.930;5.168;2022-08-24T17:33:35;3.33;;;1.33;;
36575;SDS011;45700;50.930;5.168;2022-08-24T17:37:36;2.08;;;1.42;;
36575;SDS011;45700;50.930;5.168;2022-08-24T17:41:37;1.55;;;1.10;;
36575;SDS011;45700;50.930;5.168;2022-08-24T17:45:39;3.03;;;1.17;;
36575;SDS011;45700;50.930;5.168;2022-08-24T17:49:40;3.03;;;1.20;;
36575;SDS011;45700;50.930;5.168;2022-08-24T17:53:41;1.65;;;1.20;;
36575;SDS011;45700;50.930;5.168;2022-08-24T17:57:42;3.38;;;1.33;;
36575;SDS011;45700;50.930;5.168;2022-08-24T18:01:43;1.65;;;1.20;;
36575;SDS011;45700;50.930;5.168;2022-08-24T18:05:44;1.70;;;1.20;;
36575;SDS011;45700;50.930;5.168;2022-08-24T18:09:50;4.07;;;1.50;;
36575;SDS011;45700;50.930;5.168;2022-08-24T18:13:51;2.67;;;1.30;;
36575;SDS011;45700;50.930;5.168;2022-08-24T18:17:53;2.47;;;1.20;;
36575;SDS011;45700;50.930;5.168;2022-08-24T18:21:54;2.38;;;1.58;;
36575;SDS011;45700;50.930;5.168;2022-08-24T18:25:55;4.82;;;1.67;;
36575;SDS011;45700;50.930;5.168;2022-08-24T18:30:00;2.17;;;1.40;;
36575;SDS011;45700;50.930;5.168;2022-08-24T18:34:01;2.88;;;1.55;;
36575;SDS011;45700;50.930;5.168;2022-08-24T18:38:02;1.80;;;1.20;;
36575;SDS011;45700;50.930;5.168;2022-08-24T18:42:04;3.65;;;1.40;;
36575;SDS011;45700;50.930;5.168;2022-08-24T18:46:06;5.03;;;1.83;;
36575;SDS011;45700;50.930;5.168;2022-08-24T18:50:08;2.10;;;1.20;;
36575;SDS011;45700;50.930;5.168;2022-08-24T18:54:10;3.60;;;1.63;;
36575;SDS011;45700;50.930;5.168;2022-08-24T18:58:11;3.22;;;1.45;;
36575;SDS011;45700;50.930;5.168;2022-08-24T19:02:21;3.78;;;1.88;;
36575;SDS011;45700;50.930;5.168;2022-08-24T19:06:29;2.60;;;1.50;;
36575;SDS011;45700;50.930;5.168;2022-08-24T19:10:30;2.22;;;1.73;;
36575;SDS011;45700;50.930;5.168;2022-08-24T19:14:34;2.28;;;1.45;;
36575;SDS011;45700;50.930;5.168;2022-08-24T19:18:35;3.33;;;1.48;;
36575;SDS011;45700;50.930;5.168;2022-08-24T19:22:37;4.00;;;1.60;;
36575;SDS011;45700;50.930;5.168;2022-08-24T19:26:39;3.42;;;1.50;;
36575;SDS011;45700;50.930;5.168;2022-08-24T19:30:40;3.22;;;1.77;;
36575;SDS011;45700;50.930;5.168;2022-08-24T19:34:43;3.47;;;1.60;;
36575;SDS011;45700;50.930;5.168;2022-08-24T19:38:44;2.88;;;1.80;;
36575;SDS011;45700;50.930;5.168;2022-08-24T19:42:47;4.30;;;1.70;;
36575;SDS011;45700;50.930;5.168;2022-08-24T19:46:49;4.30;;;1.60;;
36575;SDS011;45700;50.930;5.168;2022-08-24T19:50:53;3.08;;;1.52;;
36575;SDS011;45700;50.930;5.168;2022-08-24T19:54:54;2.35;;;1.70;;
36575;SDS011;45700;50.930;5.168;2022-08-24T20:02:58;3.20;;;1.48;;
36575;SDS011;45700;50.930;5.168;2022-08-24T20:07:00;4.32;;;1.83;;
36575;SDS011;45700;50.930;5.168;2022-08-24T20:11:01;1.65;;;1.45;;
36575;SDS011;45700;50.930;5.168;2022-08-24T20:15:03;2.38;;;1.48;;
36575;SDS011;45700;50.930;5.168;2022-08-24T20:19:05;2.55;;;1.40;;
36575;SDS011;45700;50.930;5.168;2022-08-24T20:23:06;3.75;;;2.00;;
36575;SDS011;45700;50.930;5.168;2022-08-24T20:27:07;2.88;;;1.60;;
36575;SDS011;45700;50.930;5.168;2022-08-24T20:31:08;4.63;;;2.10;;
36575;SDS011;45700;50.930;5.168;2022-08-24T20:35:09;5.03;;;1.77;;
36575;SDS011;45700;50.930;5.168;2022-08-24T20:39:11;2.92;;;1.90;;
36575;SDS011;45700;50.930;5.168;2022-08-24T20:43:13;2.17;;;1.65;;
36575;SDS011;45700;50.930;5.168;2022-08-24T20:47:14;2.25;;;1.63;;
36575;SDS011;45700;50.930;5.168;2022-08-24T20:51:15;2.78;;;1.75;;
36575;SDS011;45700;50.930;5.168;2022-08-24T20:55:16;4.13;;;1.90;;
36575;SDS011;45700;50.930;5.168;2022-08-24T20:59:18;2.92;;;1.60;;
36575;SDS011;45700;50.930;5.168;2022-08-24T21:03:19;2.65;;;1.90;;
36575;SDS011;45700;50.930;5.168;2022-08-24T21:07:20;3.22;;;1.88;;
36575;SDS011;45700;50.930;5.168;2022-08-24T21:11:21;1.90;;;1.65;;
36575;SDS011;45700;50.930;5.168;2022-08-24T21:15:22;3.40;;;1.52;;
36575;SDS011;45700;50.930;5.168;2022-08-24T21:19:23;5.05;;;1.83;;
36575;SDS011;45700;50.930;5.168;2022-08-24T21:23:24;8.63;;;2.88;;
36575;SDS011;45700;50.930;5.168;2022-08-24T21:27:25;4.05;;;2.15;;
36575;SDS011;45700;50.930;5.168;2022-08-24T21:31:27;2.17;;;1.80;;
36575;SDS011;45700;50.930;5.168;2022-08-24T21:35:28;2.80;;;2.15;;
36575;SDS011;45700;50.930;5.168;2022-08-24T21:39:29;2.85;;;1.88;;
36575;SDS011;45700;50.930;5.168;2022-08-24T21:43:30;3.13;;;2.28;;
36575;SDS011;45700;50.930;5.168;2022-08-24T21:47:31;2.78;;;1.88;;
36575;SDS011;45700;50.930;5.168;2022-08-24T21:51:32;4.43;;;1.88;;
36575;SDS011;45700;50.930;5.168;2022-08-24T21:55:34;3.08;;;1.98;;
36575;SDS011;45700;50.930;5.168;2022-08-24T21:59:35;4.30;;;2.03;;
36575;SDS011;45700;50.930;5.168;2022-08-24T22:03:37;3.22;;;1.98;;
36575;SDS011;45700;50.930;5.168;2022-08-24T22:07:38;4.30;;;2.00;;
36575;SDS011;45700;50.930;5.168;2022-08-24T22:11:40;2.97;;;2.13;;
36575;SDS011;45700;50.930;5.168;2022-08-24T22:15:42;5.05;;;2.15;;
36575;SDS011;45700;50.930;5.168;2022-08-24T22:19:43;4.15;;;2.10;;
36575;SDS011;45700;50.930;5.168;2022-08-24T22:23:45;3.22;;;1.70;;
36575;SDS011;45700;50.930;5.168;2022-08-24T22:27:46;2.00;;;1.80;;
36575;SDS011;45700;50.930;5.168;2022-08-24T22:31:47;2.33;;;1.88;;
36575;SDS011;45700;50.930;5.168;2022-08-24T22:35:48;4.55;;;2.30;;
36575;SDS011;45700;50.930;5.168;2022-08-24T22:39:50;4.40;;;2.50;;
36575;SDS011;45700;50.930;5.168;2022-08-24T22:43:51;3.70;;;2.10;;
36575;SDS011;45700;50.930;5.168;2022-08-24T22:48:11;4.57;;;2.75;;
36575;SDS011;45700;50.930;5.168;2022-08-24T22:52:12;4.80;;;2.60;;
36575;SDS011;45700;50.930;5.168;2022-08-24T22:56:15;2.25;;;2.00;;
36575;SDS011;45700;50.930;5.168;2022-08-24T23:00:16;4.85;;;2.90;;
36575;SDS011;45700;50.930;5.168;2022-08-24T23:04:19;3.88;;;2.10;;
36575;SDS011;45700;50.930;5.168;2022-08-24T23:08:20;2.53;;;2.08;;
36575;SDS011;45700;50.930;5.168;2022-08-24T23:12:22;5.10;;;2.30;;
36575;SDS011;45700;50.930;5.168;2022-08-24T23:16:25;3.88;;;2.30;;
36575;SDS011;45700;50.930;5.168;2022-08-24T23:20:26;4.20;;;2.20;;
36575;SDS011;45700;50.930;5.168;2022-08-24T23:24:27;2.78;;;2.00;;
36575;SDS011;45700;50.930;5.168;2022-08-24T23:28:28;3.88;;;2.40;;
36575;SDS011;45700;50.930;5.168;2022-08-24T23:32:30;3.63;;;2.20;;
36575;SDS011;45700;50.930;5.168;2022-08-24T23:36:31;4.32;;;2.30;;
36575;SDS011;45700;50.930;5.168;2022-08-24T23:40:32;3.33;;;2.50;;
36575;SDS011;45700;50.930;5.168;2022-08-24T23:44:33;4.80;;;2.55;;
36575;SDS011;45700;50.930;5.168;2022-08-24T23:48:34;2.90;;;2.28;;
36575;SDS011;45700;50.930;5.168;2022-08-24T23:52:39;4.18;;;2.65;;
36575;SDS011;45700;50.930;5.168;2022-08-24T23:56:41;3.85;;;2.63;;
